aviador You're here:

KRIC Decoded Metar

RICHMOND in VA, USA
Report Time2018-07-16 07:54:00
UTC Time2018-07-16 08:45:23
Flight Rules vfr VFR
Wind200° at 05 kt
W.Decomp.*RWY 20: 4.9 kt HW 0.8 kt RCW
RWY 25: 3.8 kt HW 3.3 kt LCW
RWY 16: 3.3 kt HW 3.8 kt RCW
W.Rank200° ranks 1
Current wind is below 200° avg. (7.7)
Visibility9999 m
Phenomena:N/A
Clouds:Overcast 160 Hf
Expected CloudBase > 1,600 ft AGL from Temp-Dew spread
Ceiling16,000 ft
Temp24°C (ISA +9)
Dew Point20°C (78% RH)
QNH1016 hPa
Density Alt1,453 ft
Elevation164 ft
Report Wrong Elevation
Raw Report
KRIC 160754Z 20005KT 10SM OVC160 24/20 A3001 RMK AO2 SLP164
T02440200 $=

Extra information for KRIC:More info

Metar Taf Metar & Taf Last 4 Metars F.Rules Stats Wind Profile Meteogram Temp Stats Airport Information Weather charts Add Link Nearby VenuesMetar ALERT Operation Metar Decoded Social comments

AIRNAV info for KRIC